Time;durP1;ratioP1;P1;durP2;ratioP2;P2;SDS_P1;SDS_P2;PMS_P1;PMS_P2;Temp;Humidity;BMP_temperature;BMP_pressure;BME280_temperature;BME280_humidity;BME280_pressure;Samples;Min_cycle;Max_cycle;Signal;HPM_P1;HPM_P2
2021/10/30 00:01:37;;;;;;;45.27;26.97;;;;;;;4.16;100.00;100471.00;4921743;29;20106;-79
2021/10/30 00:04:04;;;;;;;46.00;27.47;;;;;;;4.14;100.00;100484.94;4926334;28;20043;-79
2021/10/30 00:06:31;;;;;;;46.40;28.10;;;;;;;4.12;100.00;100473.59;4937161;29;20078;-79
2021/10/30 00:08:57;;;;;;;44.13;28.73;;;;;;;4.08;100.00;100470.13;4915403;29;20134;-79
2021/10/30 00:11:24;;;;;;;50.53;30.27;;;;;;;4.08;100.00;100475.34;4913120;29;20055;-79
2021/10/30 00:13:51;;;;;;;42.80;27.13;;;;;;;4.03;100.00;100479.66;4907509;29;20053;-81
2021/10/30 00:16:19;;;;;;;47.53;29.33;;;;;;;4.03;100.00;100478.78;4939866;29;20064;-81
2021/10/30 00:18:46;;;;;;;54.23;31.37;;;;;;;4.03;100.00;100478.78;4922669;29;20113;-81
2021/10/30 00:21:13;;;;;;;56.67;32.93;;;;;;;4.02;100.00;100469.22;4917460;28;20074;-81
2021/10/30 00:23:40;;;;;;;52.90;29.63;;;;;;;4.03;100.00;100468.34;4914746;29;20055;-81
2021/10/30 00:26:07;;;;;;;64.37;37.13;;;;;;;4.01;100.00;100463.13;4928655;29;20046;-82
2021/10/30 00:28:33;;;;;;;70.80;38.23;;;;;;;4.01;100.00;100472.69;4920193;29;20051;-82
2021/10/30 00:31:00;;;;;;;64.87;34.60;;;;;;;4.01;100.00;100483.16;4932541;29;20054;-81
2021/10/30 00:33:28;;;;;;;57.00;31.73;;;;;;;3.92;100.00;100471.81;4943392;28;20043;-81
2021/10/30 00:35:54;;;;;;;50.47;28.93;;;;;;;3.93;100.00;100473.53;4934579;29;20047;-81
2021/10/30 00:38:21;;;;;;;47.37;26.17;;;;;;;3.91;100.00;100483.13;4931059;28;20059;-81
2021/10/30 00:40:48;;;;;;;39.20;24.77;;;;;;;3.93;100.00;100477.91;4904738;29;20040;-81
2021/10/30 00:43:15;;;;;;;39.90;22.43;;;;;;;3.87;100.00;100478.78;4938526;28;20120;-81
2021/10/30 00:45:45;;;;;;;41.90;24.33;;;;;;;3.82;100.00;100490.94;4921167;29;20041;-81
2021/10/30 00:48:13;;;;;;;36.77;24.20;;;;;;;3.84;100.00;100478.75;4935665;28;20047;-81
2021/10/30 00:50:40;;;;;;;42.93;27.07;;;;;;;3.82;100.00;100475.25;4933363;29;20040;-81
2021/10/30 00:53:07;;;;;;;43.17;27.00;;;;;;;3.82;100.00;100484.84;4946921;28;20047;-81
2021/10/30 00:55:33;;;;;;;42.97;27.03;;;;;;;3.79;100.00;100484.84;4929675;29;20047;-82
2021/10/30 00:58:02;;;;;;;39.80;25.37;;;;;;;3.75;100.00;100483.06;4930733;29;20046;-81
2021/10/30 01:00:29;;;;;;;39.70;25.90;;;;;;;3.74;100.00;100473.47;4919291;29;20051;-80
2021/10/30 01:02:56;;;;;;;34.63;23.10;;;;;;;3.71;100.00;100470.88;4926229;29;20047;-81
2021/10/30 01:05:23;;;;;;;35.30;21.70;;;;;;;3.70;100.00;100470.00;4932537;29;20050;-81
2021/10/30 01:07:50;;;;;;;30.87;20.50;;;;;;;3.68;100.00;100461.25;4909329;29;20456;-81
2021/10/30 01:10:19;;;;;;;31.63;19.93;;;;;;;3.66;100.00;100463.84;4914363;29;20404;-81
2021/10/30 01:12:45;;;;;;;32.83;19.40;;;;;;;3.65;100.00;100463.84;4927977;29;20047;-81
2021/10/30 01:15:12;;;;;;;28.27;19.13;;;;;;;3.66;100.00;100463.00;4935360;28;20094;-80
2021/10/30 01:17:39;;;;;;;29.10;18.83;;;;;;;3.61;100.00;100460.34;4928847;29;20047;-81
2021/10/30 01:20:06;;;;;;;28.97;18.83;;;;;;;3.68;100.00;100456.91;4942123;29;20075;-81
2021/10/30 01:22:35;;;;;;;27.83;18.23;;;;;;;3.72;100.00;100449.97;4912538;29;20064;-81
2021/10/30 01:25:03;;;;;;;30.53;19.57;;;;;;;3.72;100.00;100447.34;4927059;29;20670;-81
2021/10/30 01:27:29;;;;;;;33.23;20.33;;;;;;;3.68;100.00;100446.44;4920432;29;20047;-80
2021/10/30 01:29:57;;;;;;;33.80;21.47;;;;;;;3.70;100.00;100451.72;4940369;29;20051;-81
2021/10/30 01:32:23;;;;;;;29.87;18.97;;;;;;;3.58;100.00;100454.25;4920265;29;20051;-81
2021/10/30 01:34:50;;;;;;;29.27;19.03;;;;;;;3.57;100.00;100457.72;4929355;29;20135;-80
2021/10/30 01:37:17;;;;;;;26.83;18.47;;;;;;;3.53;100.00;100455.94;4933266;29;20047;-81
2021/10/30 01:39:45;;;;;;;30.57;19.77;;;;;;;3.52;100.00;100449.84;4905644;29;20035;-81
2021/10/30 01:42:12;;;;;;;29.70;20.13;;;;;;;3.53;100.00;100458.56;4896834;29;20044;-81
2021/10/30 01:44:39;;;;;;;29.60;20.47;;;;;;;3.55;100.00;100455.13;4934476;29;20049;-81
2021/10/30 01:47:05;;;;;;;29.40;19.87;;;;;;;3.54;100.00;100457.72;4953718;28;20532;-80
2021/10/30 01:49:32;;;;;;;33.50;19.90;;;;;;;3.53;100.00;100455.94;4921992;29;20047;-80
2021/10/30 01:51:59;;;;;;;28.30;19.90;;;;;;;3.55;100.00;100462.94;4928908;29;20054;-81
2021/10/30 01:54:27;;;;;;;30.70;20.07;;;;;;;3.55;100.00;100456.84;4951050;28;20044;-81
2021/10/30 01:56:54;;;;;;;30.03;18.43;;;;;;;3.57;100.00;100457.72;4914525;29;20050;-81
2021/10/30 01:59:21;;;;;;;27.30;17.80;;;;;;;3.59;100.00;100456.84;4925173;29;20044;-81
2021/10/30 02:01:47;;;;;;;28.77;19.93;;;;;;;3.58;100.00;100457.72;4913279;29;20047;-81
2021/10/30 02:04:15;;;;;;;30.80;21.20;;;;;;;3.63;100.00;100461.25;4911386;29;20114;-82
2021/10/30 02:06:41;;;;;;;27.47;19.27;;;;;;;3.62;100.00;100446.44;4928222;29;20043;-81
2021/10/30 02:09:08;;;;;;;32.43;21.47;;;;;;;3.75;100.00;100452.56;4937317;29;20055;-81
2021/10/30 02:11:35;;;;;;;28.33;19.80;;;;;;;3.73;100.00;100443.00;4921160;29;20124;-81
2021/10/30 02:14:01;;;;;;;29.50;19.23;;;;;;;3.75;100.00;100446.47;4930327;29;20043;-81
2021/10/30 02:16:33;;;;;;;32.23;19.97;;;;;;;3.73;100.00;100449.09;4899340;29;20505;-81
2021/10/30 02:19:00;;;;;;;33.30;21.47;;;;;;;3.76;100.00;100443.00;4895096;29;20082;-81
2021/10/30 02:21:27;;;;;;;31.77;20.90;;;;;;;3.72;100.00;100447.34;4909590;28;20071;-81
2021/10/30 02:23:53;;;;;;;33.10;20.53;;;;;;;3.72;100.00;100447.34;4917006;29;20094;-81
2021/10/30 02:26:20;;;;;;;33.37;19.77;;;;;;;3.73;100.00;100448.22;4904748;29;20063;-81
2021/10/30 02:28:47;;;;;;;29.30;20.50;;;;;;;3.70;100.00;100453.41;4923096;29;20051;-82
2021/10/30 02:31:14;;;;;;;31.53;19.63;;;;;;;3.75;100.00;100454.31;4906837;29;20035;-81
2021/10/30 02:33:40;;;;;;;30.10;20.57;;;;;;;3.72;100.00;100454.31;4934658;29;20063;-81
2021/10/30 02:36:07;;;;;;;31.27;21.07;;;;;;;3.73;100.00;100461.28;4934018;29;20103;-80
2021/10/30 02:38:34;;;;;;;34.93;21.43;;;;;;;3.73;100.00;100454.31;4912778;29;20048;-81
2021/10/30 02:41:00;;;;;;;31.43;18.83;;;;;;;3.70;100.00;100461.25;4920150;29;20072;-81
2021/10/30 02:43:27;;;;;;;30.73;20.33;;;;;;;3.70;100.00;100464.78;4920733;29;20048;-81
2021/10/30 02:45:54;;;;;;;30.50;19.67;;;;;;;3.69;100.00;100449.94;4929098;29;20043;-81
2021/10/30 02:48:21;;;;;;;32.00;21.03;;;;;;;3.70;100.00;100459.53;4915595;29;20044;-82
2021/10/30 02:50:47;;;;;;;34.50;21.27;;;;;;;3.70;100.00;100459.53;4922276;29;20043;-81
2021/10/30 02:53:14;;;;;;;33.43;21.63;;;;;;;3.73;100.00;100456.06;4926635;29;20058;-81
2021/10/30 02:55:41;;;;;;;29.53;19.70;;;;;;;3.73;100.00;100456.94;4943366;29;20150;-81
2021/10/30 02:58:07;;;;;;;28.77;19.90;;;;;;;3.74;100.00;100458.66;4938479;28;20047;-80
2021/10/30 03:00:34;;;;;;;33.60;20.83;;;;;;;3.80;100.00;100450.88;4917791;29;20044;-81
2021/10/30 03:03:02;;;;;;;31.67;21.27;;;;;;;3.80;100.00;100457.84;4900938;28;20429;-81
2021/10/30 03:05:29;;;;;;;32.97;22.50;;;;;;;3.73;100.00;100470.00;4921306;28;20054;-81
2021/10/30 03:07:55;;;;;;;33.83;20.07;;;;;;;3.72;100.00;100462.16;4942586;29;20567;-82
2021/10/30 03:10:22;;;;;;;28.87;18.20;;;;;;;3.69;100.00;100463.00;4928529;29;20520;-81
2021/10/30 03:12:49;;;;;;;29.07;19.87;;;;;;;3.71;100.00;100465.63;4914420;29;20062;-81
2021/10/30 03:15:17;;;;;;;29.97;19.20;;;;;;;3.76;100.00;100466.50;4916972;29;20507;-81
2021/10/30 03:17:44;;;;;;;30.70;20.97;;;;;;;3.75;100.00;100468.25;4916642;29;20055;-81
2021/10/30 03:20:11;;;;;;;30.80;19.40;;;;;;;3.68;100.00;100458.63;4922777;29;20044;-80
2021/10/30 03:22:38;;;;;;;35.90;20.53;;;;;;;3.62;100.00;100464.72;4943790;28;20094;-81
2021/10/30 03:25:05;;;;;;;31.13;18.80;;;;;;;3.65;100.00;100471.69;4915099;29;20042;-82
2021/10/30 03:27:32;;;;;;;29.23;17.67;;;;;;;3.57;100.00;100460.34;4897197;29;20039;-81
2021/10/30 03:29:59;;;;;;;29.27;19.40;;;;;;;3.52;100.00;100468.13;4904470;29;20045;-81
2021/10/30 03:32:25;;;;;;;28.30;20.40;;;;;;;3.59;100.00;100461.22;4935208;29;20138;-81
2021/10/30 03:34:52;;;;;;;30.77;20.33;;;;;;;3.60;100.00;100465.56;4933642;28;20053;-80
2021/10/30 03:37:19;;;;;;;27.67;19.03;;;;;;;3.63;100.00;100466.47;4935460;28;20050;-80
2021/10/30 03:39:45;;;;;;;35.73;21.17;;;;;;;3.57;100.00;100460.34;4945539;28;20043;-81
2021/10/30 03:42:12;;;;;;;31.73;20.03;;;;;;;3.51;100.00;100462.91;4915820;29;20106;-81
2021/10/30 03:44:39;;;;;;;35.07;21.30;;;;;;;3.57;100.00;100461.22;4919582;29;20050;-81
2021/10/30 03:47:05;;;;;;;33.07;23.37;;;;;;;3.52;100.00;100467.28;4904197;29;20055;-81
2021/10/30 03:49:32;;;;;;;39.90;24.63;;;;;;;3.52;100.00;100460.31;4923748;29;20071;-81
2021/10/30 03:51:59;;;;;;;35.03;22.97;;;;;;;3.51;100.00;100462.91;4939727;29;20106;-80
2021/10/30 03:54:26;;;;;;;37.03;23.93;;;;;;;3.58;100.00;100467.31;4937460;29;20047;-81
2021/10/30 03:56:52;;;;;;;40.30;23.97;;;;;;;3.55;100.00;100475.13;4923710;29;20138;-81
2021/10/30 03:59:19;;;;;;;36.50;22.23;;;;;;;3.50;100.00;100471.63;4922645;29;20047;-81
2021/10/30 04:01:46;;;;;;;37.67;24.27;;;;;;;3.47;100.00;100466.38;4947194;29;20042;-81
2021/10/30 04:04:12;;;;;;;37.47;23.37;;;;;;;3.47;100.00;100471.63;4920459;29;20139;-81
2021/10/30 04:06:39;;;;;;;36.10;25.20;;;;;;;3.47;100.00;100469.88;4930297;29;20055;-80
2021/10/30 04:09:06;;;;;;;35.17;22.97;;;;;;;3.45;100.00;100469.00;4929773;29;20039;-81
2021/10/30 04:11:33;;;;;;;37.20;24.47;;;;;;;3.43;100.00;100469.84;4941984;28;20106;-80
2021/10/30 04:14:00;;;;;;;39.00;24.50;;;;;;;3.42;100.00;100463.75;4931441;29;20047;-81
2021/10/30 04:16:26;;;;;;;38.83;23.03;;;;;;;3.37;100.00;100466.34;4902900;29;20039;-80
2021/10/30 04:18:56;;;;;;;36.43;24.23;;;;;;;3.39;100.00;100463.72;4939144;29;20058;-81
2021/10/30 04:21:24;;;;;;;38.73;23.63;;;;;;;3.49;100.00;100457.69;4933633;29;20404;-81
2021/10/30 04:23:51;;;;;;;32.40;22.43;;;;;;;3.43;100.00;100467.22;4901228;29;20047;-80
2021/10/30 04:26:18;;;;;;;37.50;24.73;;;;;;;3.39;100.00;100461.13;4910402;29;20051;-81
2021/10/30 04:28:44;;;;;;;43.00;25.63;;;;;;;3.36;100.00;100454.16;4923054;29;20054;-82
2021/10/30 04:31:19;;;;;;;40.50;25.90;;;;;;;3.43;100.00;100452.41;4946834;29;20039;-81
2021/10/30 04:33:45;;;;;;;;;;;;;;;3.37;100.00;100445.44;4932445;29;20071;-81
2021/10/30 04:36:16;;;;;;;32.00;21.17;;;;;;;3.37;100.00;100453.28;4903688;29;20379;-81
2021/10/30 04:38:44;;;;;;;33.47;19.80;;;;;;;3.48;100.00;100453.34;4944829;29;20425;-81
2021/10/30 04:41:12;;;;;;;31.37;20.17;;;;;;;3.42;100.00;100445.47;4902101;29;20040;-81
2021/10/30 04:43:39;;;;;;;32.07;19.87;;;;;;;3.38;100.00;100452.41;4920089;29;20763;-81
2021/10/30 04:46:08;;;;;;;34.27;20.43;;;;;;;3.44;100.00;100450.69;4944186;29;20513;-81
2021/10/30 04:48:36;;;;;;;33.80;21.43;;;;;;;3.39;100.00;100448.94;4941569;29;20114;-81
2021/10/30 04:51:05;;;;;;;37.23;23.40;;;;;;;3.38;100.00;100435.88;4940836;28;20134;-81
2021/10/30 04:53:37;;;;;;;34.60;23.87;;;;;;;3.38;100.00;100446.31;4938136;28;20525;-81
2021/10/30 04:56:07;;;;;;;35.30;21.87;;;;;;;3.34;100.00;100439.31;4933708;28;20045;-81
2021/10/30 04:58:35;;;;;;;39.50;25.07;;;;;;;3.34;100.00;100439.31;4932946;29;20887;-81
2021/10/30 05:01:04;;;;;;;39.53;24.17;;;;;;;3.43;100.00;100443.72;4917827;29;20035;-81
2021/10/30 05:03:31;;;;;;;35.03;23.17;;;;;;;3.38;100.00;100441.97;4917992;28;20796;-81
2021/10/30 05:05:57;;;;;;;39.20;23.33;;;;;;;3.41;100.00;100437.63;4932881;29;20048;-82
2021/10/30 05:08:24;;;;;;;40.27;24.57;;;;;;;3.47;100.00;100440.28;4940042;28;20129;-83
2021/10/30 05:10:51;;;;;;;39.93;25.20;;;;;;;3.41;100.00;100445.47;4935387;29;20036;-81
2021/10/30 05:13:18;;;;;;;36.17;23.80;;;;;;;3.32;100.00;100438.44;4934114;29;20047;-81
2021/10/30 05:15:44;;;;;;;44.20;26.00;;;;;;;3.35;100.00;100436.72;4942756;29;20051;-81
2021/10/30 05:18:11;;;;;;;37.83;23.83;;;;;;;3.25;100.00;100428.84;4934402;28;20067;-81
2021/10/30 05:20:38;;;;;;;37.00;23.67;;;;;;;3.17;100.00;100430.53;4918553;29;20047;-81
2021/10/30 05:23:04;;;;;;;44.53;25.60;;;;;;;3.22;100.00;100432.31;4947649;29;20043;-80
2021/10/30 05:25:31;;;;;;;40.03;24.97;;;;;;;3.17;100.00;100430.53;4950136;29;20452;-81
2021/10/30 05:27:58;;;;;;;42.93;25.00;;;;;;;3.09;100.00;100426.13;4906042;29;20050;-81
2021/10/30 05:30:24;;;;;;;37.10;23.43;;;;;;;3.04;100.00;100429.59;4905304;29;20036;-81
2021/10/30 05:32:51;;;;;;;36.53;22.87;;;;;;;3.10;100.00;100425.25;4899600;29;20047;-81
2021/10/30 05:35:18;;;;;;;41.23;24.17;;;;;;;3.15;100.00;100425.31;4932143;29;20044;-81
2021/10/30 05:37:44;;;;;;;38.00;24.37;;;;;;;3.23;100.00;100430.56;4914432;28;20127;-83
2021/10/30 05:40:12;;;;;;;36.13;23.30;;;;;;;3.07;100.00;100450.47;4912219;29;20565;-83
2021/10/30 05:42:41;;;;;;;36.43;22.23;;;;;;;3.00;100.00;100439.13;4953056;29;20505;-83
2021/10/30 05:45:09;;;;;;;37.37;23.03;;;;;;;2.97;100.00;100428.69;4924253;29;20039;-82
2021/10/30 05:47:36;;;;;;;36.63;22.77;;;;;;;2.98;100.00;100432.16;4936348;29;20524;-82
2021/10/30 05:50:05;;;;;;;38.07;23.63;;;;;;;2.96;100.00;100436.50;4948029;28;20043;-82
2021/10/30 05:52:32;;;;;;;40.70;24.03;;;;;;;3.01;100.00;100445.22;4945607;29;20051;-82
2021/10/30 05:54:58;;;;;;;39.03;24.27;;;;;;;3.05;100.00;100444.38;4937667;29;20047;-82
2021/10/30 05:57:25;;;;;;;39.27;24.23;;;;;;;3.04;100.00;100440.03;4924828;29;20044;-82
2021/10/30 05:59:52;;;;;;;38.93;23.13;;;;;;;2.96;100.00;100442.59;4923296;29;20039;-82
2021/10/30 06:02:19;;;;;;;33.30;23.27;;;;;;;2.91;100.00;100443.41;4925375;29;20103;-82
2021/10/30 06:04:45;;;;;;;35.70;23.67;;;;;;;2.87;100.00;100439.03;4921185;29;20047;-82
2021/10/30 06:07:12;;;;;;;34.67;23.20;;;;;;;2.90;100.00;100441.66;4938509;29;20555;-81
2021/10/30 06:09:39;;;;;;;36.60;23.70;;;;;;;2.92;100.00;100440.81;4946727;28;20157;-82
2021/10/30 06:12:06;;;;;;;35.80;23.00;;;;;;;2.97;100.00;100435.63;4899380;29;20067;-82
2021/10/30 06:14:33;;;;;;;40.10;23.70;;;;;;;3.00;100.00;100443.47;4902839;29;20047;-82
2021/10/30 06:17:00;;;;;;;41.03;24.70;;;;;;;2.99;100.00;100440.00;4930465;29;20051;-81
2021/10/30 06:19:27;;;;;;;40.27;24.60;;;;;;;3.06;100.00;100448.75;4914964;29;20051;-81
2021/10/30 06:21:54;;;;;;;38.83;23.77;;;;;;;3.06;100.00;100448.75;4923695;29;20040;-82
2021/10/30 06:24:21;;;;;;;40.93;26.33;;;;;;;2.99;100.00;100452.16;4950669;29;20051;-82
2021/10/30 06:26:48;;;;;;;39.87;26.80;;;;;;;2.92;100.00;100445.16;4909075;28;20054;-84
2021/10/30 06:29:14;;;;;;;42.13;27.97;;;;;;;2.91;100.00;100444.28;4899897;28;20189;-84
2021/10/30 06:31:41;;;;;;;41.53;27.20;;;;;;;2.92;100.00;100443.41;4940745;28;20511;-88
2021/10/30 06:34:08;;;;;;;40.77;24.63;;;;;;;2.92;100.00;100446.03;4946341;28;20046;-84
2021/10/30 06:36:34;;;;;;;43.20;26.33;;;;;;;2.95;100.00;100445.19;4922286;29;20133;-83
2021/10/30 06:39:02;;;;;;;42.03;24.57;;;;;;;2.94;100.00;100448.63;4945375;29;20051;-84
2021/10/30 06:41:45;;;;;;;34.93;22.77;;;;;;;2.94;100.00;100444.28;4928052;28;20514;-85
2021/10/30 06:44:12;;;;;;;40.33;23.67;;;;;;;3.00;100.00;100449.56;4922261;29;20105;-85
2021/10/30 06:46:39;;;;;;;41.07;25.80;;;;;;;3.02;100.00;100452.19;4930328;29;20044;-86
2021/10/30 06:49:10;;;;;;;38.90;24.17;;;;;;;3.08;100.00;100452.22;4930943;29;20051;-85
2021/10/30 06:51:38;;;;;;;39.37;25.50;;;;;;;3.14;100.00;100433.13;4894352;29;20562;-85
2021/10/30 06:54:06;;;;;;;39.43;25.30;;;;;;;3.06;100.00;100448.75;4925227;28;20048;-85
2021/10/30 06:56:34;;;;;;;37.27;24.43;;;;;;;3.11;100.00;100447.00;4920715;29;20404;-83
2021/10/30 06:59:05;;;;;;;40.90;24.97;;;;;;;3.18;100.00;100450.53;5004686;23;20042;-79
2021/10/30 07:01:33;;;;;;;36.77;22.13;;;;;;;3.18;100.00;100451.41;4913119;29;20040;-80
2021/10/30 07:04:01;;;;;;;36.63;22.67;;;;;;;3.21;100.00;100445.34;4914384;29;20659;-80
2021/10/30 07:06:28;;;;;;;35.10;22.33;;;;;;;3.17;100.00;100446.19;4919201;29;20048;-82
2021/10/30 07:08:56;;;;;;;36.33;22.50;;;;;;;3.18;100.00;100440.97;4882853;29;20043;-83
2021/10/30 07:11:23;;;;;;;37.60;22.53;;;;;;;3.22;100.00;100445.38;4909959;29;20047;-81
2021/10/30 07:13:50;;;;;;;35.37;22.37;;;;;;;3.31;100.00;100445.41;4915469;29;20040;-82
2021/10/30 07:16:17;;;;;;;39.97;24.20;;;;;;;3.34;100.00;100442.81;4911828;29;20054;-81
2021/10/30 07:18:44;;;;;;;36.60;23.90;;;;;;;3.32;100.00;100447.16;4906737;29;20060;-81
2021/10/30 07:21:11;;;;;;;38.40;23.77;;;;;;;3.48;100.00;100449.84;4923293;29;20047;-81
2021/10/30 07:23:38;;;;;;;35.53;22.10;;;;;;;3.47;100.00;100443.75;4928147;29;20429;-81
2021/10/30 07:26:05;;;;;;;39.27;24.03;;;;;;;3.62;100.00;100440.34;4914638;29;20062;-81
2021/10/30 07:28:32;;;;;;;36.63;24.03;;;;;;;3.74;100.00;100443.00;4938401;29;20055;-81
2021/10/30 07:30:59;;;;;;;37.63;22.90;;;;;;;3.69;100.00;100442.09;4899672;29;20040;-81
2021/10/30 07:33:26;;;;;;;38.00;25.50;;;;;;;3.78;100.00;100446.47;4916090;29;20114;-81
2021/10/30 07:35:53;;;;;;;40.40;25.60;;;;;;;3.80;100.00;100440.41;4904552;29;20641;-80
2021/10/30 07:38:22;;;;;;;42.73;26.87;;;;;;;4.11;100.00;100437.88;4911249;29;20379;-81
2021/10/30 07:40:50;;;;;;;42.57;25.90;;;;;;;4.10;100.00;100450.06;4901628;29;20062;-82
2021/10/30 07:43:17;;;;;;;41.97;25.17;;;;;;;4.07;100.00;100450.06;4915480;29;20047;-82
2021/10/30 07:45:44;;;;;;;45.77;26.67;;;;;;;4.12;100.00;100450.06;4922144;29;20051;-83
2021/10/30 07:48:10;;;;;;;39.33;24.90;;;;;;;4.16;100.00;100444.84;4911054;29;20055;-83
2021/10/30 07:50:37;;;;;;;40.53;25.73;;;;;;;4.31;100.00;100441.41;4918957;29;20052;-81
2021/10/30 07:53:04;;;;;;;41.77;26.10;;;;;;;4.39;100.00;100438.81;4898083;29;20055;-83
2021/10/30 07:55:31;;;;;;;35.10;24.30;;;;;;;4.56;100.00;100429.22;4916746;29;20044;-80
2021/10/30 07:57:59;;;;;;;39.20;24.83;;;;;;;4.59;100.00;100431.81;4917945;29;20747;-80
2021/10/30 08:00:26;;;;;;;36.47;24.00;;;;;;;4.63;100.00;100435.34;4945257;29;20520;-80
2021/10/30 08:02:53;;;;;;;36.17;22.80;;;;;;;4.61;100.00;100431.81;4919733;29;20409;-80
2021/10/30 08:05:20;;;;;;;34.70;23.77;;;;;;;4.67;100.00;100427.47;4899681;29;20052;-82
2021/10/30 08:07:47;;;;;;;38.43;25.07;;;;;;;4.70;100.00;100429.19;4901979;29;20510;-81
2021/10/30 08:10:14;;;;;;;37.13;23.87;;;;;;;4.83;100.00;100419.63;4928302;29;20050;-82
2021/10/30 08:12:41;;;;;;;37.23;24.00;;;;;;;4.95;100.00;100419.59;4925835;29;20044;-80
2021/10/30 08:15:08;;;;;;;33.63;23.67;;;;;;;5.09;100.00;100409.97;4934609;29;20149;-82
2021/10/30 08:17:35;;;;;;;34.03;23.73;;;;;;;5.10;100.00;100414.31;4898811;29;20039;-81
2021/10/30 08:20:04;;;;;;;37.93;24.10;;;;;;;5.32;100.00;100409.91;4909826;29;20051;-80
2021/10/30 08:22:31;;;;;;;33.97;22.17;;;;;;;5.42;100.00;100416.00;4948207;29;20599;-80
2021/10/30 08:24:59;;;;;;;33.43;23.50;;;;;;;5.52;100.00;100410.69;4915159;28;20066;-80
2021/10/30 08:27:25;;;;;;;33.57;22.03;;;;;;;5.59;100.00;100404.56;4903396;29;20508;-80
2021/10/30 08:29:52;;;;;;;36.70;22.53;;;;;;;5.69;100.00;100402.75;4916262;29;20503;-80
2021/10/30 08:32:19;;;;;;;30.80;20.90;;;;;;;5.75;100.00;100401.88;4920320;29;20398;-80
2021/10/30 08:34:46;;;;;;;32.80;20.80;;;;;;;5.95;100.00;100391.31;4918216;29;20055;-80
2021/10/30 08:37:13;;;;;;;33.33;22.57;;;;;;;6.01;100.00;100393.91;4949451;28;20052;-83
2021/10/30 08:39:40;;;;;;;33.50;20.40;;;;;;;6.08;100.00;100385.97;4900766;29;20040;-80
2021/10/30 08:42:07;;;;;;;29.63;20.50;;;;;;;6.33;100.00;100385.81;4899025;29;20312;-80
2021/10/30 08:44:37;;;;;;;29.30;20.00;;;;;;;6.47;100.00;100378.69;4904554;29;20080;-80
2021/10/30 08:47:05;;;;;;;28.40;20.03;;;;;;;6.60;100.00;100376.84;4894648;29;20051;-80
2021/10/30 08:49:35;;;;;;;33.27;19.43;;;;;;;6.91;100.00;100366.94;4897171;29;20107;-78
2021/10/30 08:52:02;;;;;;;28.87;19.83;;;;;;;7.09;100.00;100365.84;4907483;29;20064;-80
2021/10/30 08:54:29;;;;;;;30.53;19.90;;;;;;;7.39;100.00;100364.63;4914991;29;20050;-78
2021/10/30 08:56:56;;;;;;;28.90;19.37;;;;;;;7.66;100.00;100360.78;4940925;29;20102;-79
2021/10/30 08:59:40;;;;;;;27.73;18.43;;;;;;;7.65;100.00;100354.66;4933655;29;20050;-78
2021/10/30 09:02:09;;;;;;;27.80;19.27;;;;;;;7.77;100.00;100359.75;4918677;29;20111;-78
2021/10/30 09:04:35;;;;;;;28.50;19.83;;;;;;;8.08;99.30;100356.69;4901761;29;20560;-79
2021/10/30 09:07:06;;;;;;;24.50;17.48;;;;;;;8.26;97.34;100361.66;4931299;29;20048;-79
2021/10/30 09:09:33;;;;;;;27.37;19.70;;;;;;;8.39;96.26;100359.72;4936520;29;20040;-79
2021/10/30 09:12:03;;;;;;;26.02;17.30;;;;;;;8.50;94.70;100354.28;4921582;28;20441;-79
2021/10/30 09:14:32;;;;;;;21.35;15.68;;;;;;;8.58;97.68;100349.75;4905180;29;20046;-79
2021/10/30 09:17:28;;;;;;;22.85;15.80;;;;;;;8.71;97.17;100348.63;4932677;29;20481;-78
2021/10/30 09:19:55;;;;;;;21.42;16.23;;;;;;;9.14;91.31;100346.06;4893573;29;20402;-78
2021/10/30 09:22:24;;;;;;;18.98;14.50;;;;;;;9.25;91.97;100343.25;4896618;29;20107;-78
2021/10/30 09:25:03;;;;;;;21.30;14.65;;;;;;;9.42;92.22;100343.75;4919200;29;20103;-78
2021/10/30 09:27:47;;;;;;;20.80;16.48;;;;;;;9.82;87.06;100348.16;4933167;29;20051;-78
2021/10/30 09:30:16;;;;;;;22.45;15.95;;;;;;;10.25;80.47;100333.97;5009905;23;20412;-80
2021/10/30 09:33:03;;;;;;;19.65;15.40;;;;;;;10.35;78.45;100331.09;4934574;29;20032;-80
2021/10/30 09:35:40;;;;;;;19.17;14.18;;;;;;;10.51;75.87;100328.94;4932761;29;20051;-80
2021/10/30 09:38:17;;;;;;;23.50;16.23;;;;;;;10.83;76.34;100317.50;4910256;28;20039;-80
2021/10/30 09:40:43;;;;;;;19.90;15.15;;;;;;;11.04;75.51;100316.06;4899874;28;20048;-80
2021/10/30 09:43:13;;;;;;;20.67;15.85;;;;;;;10.94;76.92;100322.53;4924679;28;20031;-79
2021/10/30 09:45:46;;;;;;;17.25;14.77;;;;;;;11.16;74.33;100309.56;4918038;29;20059;-79
2021/10/30 09:48:21;;;;;;;21.27;16.05;;;;;;;11.41;75.89;100320.31;4932171;28;20086;-79
2021/10/30 09:50:53;;;;;;;18.40;14.48;;;;;;;11.60;76.80;100318.84;4923210;29;20054;-79
2021/10/30 09:53:30;;;;;;;19.98;14.00;;;;;;;11.76;72.06;100321.88;4936667;29;20043;-79
2021/10/30 09:55:58;;;;;;;21.98;17.00;;;;;;;12.06;70.57;100312.16;4905532;29;20044;-79
2021/10/30 09:58:28;;;;;;;17.35;14.35;;;;;;;12.11;73.27;100312.91;4924809;28;20051;-79
2021/10/30 10:01:05;;;;;;;22.20;17.27;;;;;;;12.36;71.13;100311.19;4905797;29;20047;-79
2021/10/30 10:03:32;;;;;;;20.00;17.83;;;;;;;12.36;68.14;100303.22;4931369;28;20393;-80
2021/10/30 10:06:05;;;;;;;18.95;12.80;;;;;;;12.53;71.35;100313.25;4918661;29;20047;-81
2021/10/30 10:08:33;;;;;;;19.17;15.85;;;;;;;12.76;68.24;100299.19;4929804;28;20095;-79
2021/10/30 10:11:00;;;;;;;15.93;13.93;;;;;;;12.78;70.01;100299.13;4925516;29;20043;-79
2021/10/30 10:13:27;;;;;;;14.88;12.40;;;;;;;12.84;69.72;100290.97;4931534;29;20039;-81
2021/10/30 10:15:54;;;;;;;17.83;14.13;;;;;;;12.91;69.55;100285.38;4920683;28;20058;-79
2021/10/30 10:18:21;;;;;;;18.08;13.63;;;;;;;12.85;69.49;100280.28;4940162;29;20066;-80
2021/10/30 10:20:48;;;;;;;17.10;13.02;;;;;;;13.08;68.58;100278.59;4950541;29;20111;-80
2021/10/30 10:23:20;;;;;;;16.40;12.95;;;;;;;12.78;69.21;100267.31;4913945;29;20408;-80
2021/10/30 10:25:52;;;;;;;15.40;12.52;;;;;;;13.00;67.65;100259.47;4921840;29;20711;-80
2021/10/30 10:28:26;;;;;;;19.35;15.88;;;;;;;13.16;65.10;100258.84;4948110;28;20079;-79
2021/10/30 10:30:58;;;;;;;;;;;;;;;13.21;65.35;100258.72;4907572;29;20059;-80
2021/10/30 10:33:26;;;;;;;17.55;13.82;;;;;;;13.51;63.68;100260.16;4947981;29;19927;-79
2021/10/30 10:36:25;;;;;;;16.73;14.35;;;;;;;13.53;59.78;100253.00;4927919;28;20055;-79
2021/10/30 10:38:58;;;;;;;15.40;13.25;;;;;;;13.63;61.13;100245.56;4887159;29;20084;-79
2021/10/30 10:41:37;;;;;;;16.50;12.57;;;;;;;13.80;60.72;100245.75;4955128;28;20051;-79
2021/10/30 10:44:09;;;;;;;15.50;11.80;;;;;;;13.86;61.50;100249.06;4927274;29;20055;-79
2021/10/30 10:46:40;;;;;;;17.33;12.80;;;;;;;13.90;59.17;100243.59;4925302;29;20056;-80
2021/10/30 10:49:29;;;;;;;15.35;12.88;;;;;;;14.08;60.14;100234.00;4914737;29;20057;-81
2021/10/30 10:54:54;;;;;;;16.23;14.57;;;;;;;14.19;63.65;100233.53;4937052;29;20056;-80
2021/10/30 10:57:32;;;;;;;14.35;11.23;;;;;;;14.23;62.98;100238.69;4915696;28;20055;-81
2021/10/30 11:00:29;;;;;;;15.63;13.38;;;;;;;14.34;60.14;100225.78;4931644;29;20046;-81
2021/10/30 11:02:56;;;;;;;13.57;11.27;;;;;;;14.36;60.74;100217.75;4926334;29;20051;-82
2021/10/30 11:05:33;;;;;;;14.88;11.40;;;;;;;14.52;59.97;100210.00;4930584;29;20084;-81
2021/10/30 11:08:34;;;;;;;14.77;11.82;;;;;;;14.52;59.25;100202.91;4937384;28;20074;-80
2021/10/30 11:11:08;;;;;;;14.20;11.85;;;;;;;14.57;58.59;100198.25;4909684;29;20043;-81
2021/10/30 11:13:35;;;;;;;14.18;12.50;;;;;;;14.76;58.08;100202.75;4919496;29;20047;-80
2021/10/30 11:16:03;;;;;;;15.38;11.82;;;;;;;14.74;58.08;100188.66;4933726;29;20461;-80
2021/10/30 11:18:45;;;;;;;13.77;12.20;;;;;;;14.72;58.97;100188.75;4908802;29;20055;-81